Time;durP1;ratioP1;P1;durP2;ratioP2;P2;SDS_P1;SDS_P2;PMS_P1;PMS_P2;Temp;Humidity;BMP_temperature;BMP_pressure;BME280_temperature;BME280_humidity;BME280_pressure;Samples;Min_cycle;Max_cycle;Signal;HPM_P1;HPM_P2
2023/12/24 00:00:55;;;;;;;9.60;6.78;;;9.70;99.90;;;;;;5136456;27;20015;-75
2023/12/24 00:03:21;;;;;;;9.20;7.43;;;9.70;99.90;;;;;;5138831;27;20023;-76
2023/12/24 00:05:47;;;;;;;10.63;7.40;;;9.70;99.90;;;;;;5117095;27;20027;-75
2023/12/24 00:08:12;;;;;;;9.43;6.68;;;9.70;99.90;;;;;;5131097;27;20031;-76
2023/12/24 00:10:38;;;;;;;9.10;7.10;;;9.70;99.90;;;;;;5115936;27;20031;-76
2023/12/24 00:13:04;;;;;;;8.10;6.68;;;9.70;99.90;;;;;;5116004;27;20066;-74
2023/12/24 00:15:29;;;;;;;7.72;6.32;;;9.60;99.90;;;;;;5133700;27;20050;-75
2023/12/24 00:17:55;;;;;;;7.25;6.50;;;9.60;99.90;;;;;;5128675;27;20031;-74
2023/12/24 00:20:20;;;;;;;8.55;6.50;;;9.70;99.90;;;;;;5131559;27;20023;-75
2023/12/24 00:23:06;;;;;;;6.40;5.78;;;9.70;99.90;;;;;;5127530;27;20441;-74
2023/12/24 00:25:33;;;;;;;7.95;6.22;;;9.70;99.90;;;;;;5128999;27;20031;-75
2023/12/24 00:27:59;;;;;;;12.15;5.80;;;9.70;99.90;;;;;;5137254;27;20027;-75
2023/12/24 00:30:28;;;;;;;6.72;5.82;;;9.70;99.90;;;;;;5129301;27;20386;-75
2023/12/24 00:32:55;;;;;;;6.80;6.10;;;9.70;99.90;;;;;;5119677;27;20554;-76
2023/12/24 00:35:21;;;;;;;10.18;6.28;;;9.70;99.90;;;;;;5126855;27;20019;-76
2023/12/24 00:37:47;;;;;;;6.25;5.65;;;9.70;99.90;;;;;;5131452;27;20023;-75
2023/12/24 00:40:13;;;;;;;7.65;5.40;;;9.70;99.90;;;;;;5107904;28;20016;-75
2023/12/24 00:42:39;;;;;;;7.00;6.30;;;9.70;99.90;;;;;;5130685;27;20031;-75
2023/12/24 00:45:06;;;;;;;5.55;4.95;;;9.70;99.90;;;;;;5113130;28;20023;-75
2023/12/24 00:47:31;;;;;;;7.35;5.28;;;9.70;99.90;;;;;;5130115;27;20027;-76
2023/12/24 00:49:57;;;;;;;6.68;5.60;;;9.70;99.90;;;;;;5124383;27;20015;-76
2023/12/24 00:52:23;;;;;;;7.15;4.70;;;9.80;99.90;;;;;;5114404;28;20035;-74
2023/12/24 00:54:49;;;;;;;5.30;4.80;;;9.80;99.90;;;;;;5118633;27;20141;-75
2023/12/24 00:57:14;;;;;;;6.57;4.95;;;9.80;99.90;;;;;;5111650;27;20015;-75
2023/12/24 00:59:40;;;;;;;8.77;5.28;;;9.80;99.90;;;;;;5122727;27;20031;-76
2023/12/24 01:02:06;;;;;;;10.32;5.60;;;9.70;99.90;;;;;;5129517;27;20027;-76
2023/12/24 01:04:31;;;;;;;8.10;6.07;;;9.70;99.90;;;;;;5108894;28;20038;-76
2023/12/24 01:06:57;;;;;;;7.13;5.88;;;9.60;99.90;;;;;;5112933;28;20071;-75
2023/12/24 01:09:23;;;;;;;7.30;6.28;;;9.60;99.90;;;;;;5111570;27;20030;-76
2023/12/24 01:11:49;;;;;;;7.22;6.53;;;9.50;99.90;;;;;;5114696;28;20024;-76
2023/12/24 01:14:15;;;;;;;7.65;6.72;;;9.50;99.90;;;;;;5111361;27;20038;-76
2023/12/24 01:16:41;;;;;;;7.43;5.85;;;9.50;99.90;;;;;;5136699;27;20027;-75
2023/12/24 01:19:07;;;;;;;6.68;5.97;;;9.50;99.90;;;;;;5131203;27;20107;-75
2023/12/24 01:21:33;;;;;;;9.60;6.30;;;9.50;99.90;;;;;;5117811;27;20497;-74
2023/12/24 01:23:58;;;;;;;6.70;5.80;;;9.50;99.90;;;;;;5136909;27;20481;-75
2023/12/24 01:26:24;;;;;;;7.47;6.50;;;9.50;99.90;;;;;;5136769;27;20016;-75
2023/12/24 01:28:50;;;;;;;8.23;6.35;;;9.50;99.90;;;;;;5136481;27;20054;-77
2023/12/24 01:31:15;;;;;;;12.15;6.82;;;9.50;99.90;;;;;;5114621;28;20058;-77
2023/12/24 01:33:41;;;;;;;9.63;6.45;;;9.50;99.90;;;;;;5129922;27;20027;-76
2023/12/24 01:36:07;;;;;;;9.45;8.25;;;9.50;99.90;;;;;;5136297;27;20026;-77
2023/12/24 01:38:33;;;;;;;9.85;7.78;;;9.50;99.90;;;;;;5136288;27;20125;-76
2023/12/24 01:40:59;;;;;;;9.13;7.40;;;9.50;99.90;;;;;;5114616;28;20051;-76
2023/12/24 01:43:25;;;;;;;9.45;7.88;;;9.50;99.90;;;;;;5108524;28;20031;-76
2023/12/24 01:45:51;;;;;;;9.32;7.82;;;9.50;99.90;;;;;;5114373;28;20092;-77
2023/12/24 01:48:17;;;;;;;10.13;7.75;;;9.50;99.90;;;;;;5129897;28;20039;-77
2023/12/24 01:50:48;;;;;;;8.52;7.68;;;9.40;99.90;;;;;;5114247;28;20088;-76
2023/12/24 01:53:16;;;;;;;9.52;6.93;;;9.40;99.90;;;;;;5111983;28;20491;-77
2023/12/24 01:55:43;;;;;;;8.70;7.18;;;9.50;99.90;;;;;;5102472;28;20081;-76
2023/12/24 01:58:08;;;;;;;10.10;6.82;;;9.50;99.90;;;;;;5130969;28;20023;-77
2023/12/24 02:00:35;;;;;;;7.90;6.10;;;9.50;99.90;;;;;;5118266;28;20467;-77
2023/12/24 02:03:02;;;;;;;8.02;6.25;;;9.50;99.90;;;;;;5117659;28;20030;-77
2023/12/24 02:05:28;;;;;;;6.75;5.43;;;9.50;99.90;;;;;;5140099;27;20023;-74
2023/12/24 02:07:55;;;;;;;7.88;5.88;;;9.50;99.90;;;;;;5140238;27;20015;-76
2023/12/24 02:10:22;;;;;;;8.38;6.43;;;9.50;99.90;;;;;;5140506;27;20050;-77
2023/12/24 02:12:49;;;;;;;8.10;6.60;;;9.50;99.90;;;;;;5121876;27;20027;-76
2023/12/24 02:15:15;;;;;;;7.28;5.90;;;9.50;99.90;;;;;;5121829;27;20023;-76
2023/12/24 02:17:43;;;;;;;9.55;6.88;;;9.50;99.90;;;;;;5140053;27;20542;-77
2023/12/24 02:20:10;;;;;;;7.40;6.57;;;9.50;99.90;;;;;;5136466;27;20019;-77
2023/12/24 02:22:36;;;;;;;6.93;6.25;;;9.50;99.90;;;;;;5121104;27;20023;-77
2023/12/24 02:25:02;;;;;;;8.82;6.43;;;9.50;99.90;;;;;;5140324;27;20079;-77
2023/12/24 02:27:49;;;;;;;7.80;5.93;;;9.50;99.90;;;;;;5139879;27;20019;-77
2023/12/24 02:30:26;;;;;;;6.78;6.03;;;9.50;99.90;;;;;;5121682;27;20494;-77
2023/12/24 02:32:56;;;;;;;7.53;6.30;;;9.40;99.90;;;;;;5121407;27;20023;-77
2023/12/24 02:35:23;;;;;;;7.85;5.55;;;9.40;99.90;;;;;;5139669;27;20435;-77
2023/12/24 02:37:49;;;;;;;6.40;5.65;;;9.40;99.90;;;;;;5139786;27;20106;-77
2023/12/24 02:40:14;;;;;;;7.35;5.35;;;9.40;99.90;;;;;;5121386;27;20108;-77
2023/12/24 02:42:40;;;;;;;7.88;5.72;;;9.30;99.90;;;;;;5139914;27;20099;-77
2023/12/24 02:45:06;;;;;;;7.68;5.60;;;9.30;99.90;;;;;;5120077;27;20032;-76
2023/12/24 02:47:32;;;;;;;7.65;5.70;;;9.30;99.90;;;;;;5139683;27;20027;-77
2023/12/24 02:49:57;;;;;;;7.07;5.78;;;9.30;99.90;;;;;;5119836;27;20115;-77
2023/12/24 02:52:23;;;;;;;6.55;5.90;;;9.30;99.90;;;;;;5138102;27;20126;-77
2023/12/24 02:54:49;;;;;;;7.22;5.60;;;9.20;99.90;;;;;;5120527;27;20058;-77
2023/12/24 02:57:15;;;;;;;5.53;5.00;;;9.20;99.90;;;;;;5117681;28;20023;-77
2023/12/24 02:59:41;;;;;;;12.10;6.20;;;9.20;99.90;;;;;;5116032;27;20024;-76
2023/12/24 03:02:06;;;;;;;5.85;5.25;;;9.10;99.90;;;;;;5139519;27;20056;-77
2023/12/24 03:04:32;;;;;;;6.25;5.43;;;9.10;99.90;;;;;;5139459;27;20034;-77
2023/12/24 03:06:58;;;;;;;6.20;5.35;;;9.10;99.90;;;;;;5138882;27;20034;-77
2023/12/24 03:09:23;;;;;;;6.72;6.03;;;9.10;99.90;;;;;;5139105;27;20031;-77
2023/12/24 03:11:50;;;;;;;6.78;5.30;;;9.10;99.90;;;;;;5117438;28;20031;-77
2023/12/24 03:14:15;;;;;;;7.68;5.93;;;9.10;99.90;;;;;;5115278;27;20042;-77
2023/12/24 03:16:41;;;;;;;10.00;6.55;;;9.10;99.90;;;;;;5139171;27;20588;-77
2023/12/24 03:19:07;;;;;;;8.40;6.38;;;9.20;99.90;;;;;;5120507;27;20440;-77
2023/12/24 03:21:32;;;;;;;7.63;6.25;;;9.20;99.90;;;;;;5138829;27;20525;-77
2023/12/24 03:23:58;;;;;;;9.07;7.20;;;9.20;99.90;;;;;;5138988;27;20456;-77
2023/12/24 03:26:23;;;;;;;15.18;8.30;;;9.20;99.90;;;;;;5139112;27;20047;-77
2023/12/24 03:28:50;;;;;;;8.20;6.18;;;9.20;99.90;;;;;;5120454;27;20118;-76
2023/12/24 03:31:16;;;;;;;8.52;7.25;;;9.20;99.90;;;;;;5138766;27;20011;-77
2023/12/24 03:33:42;;;;;;;7.78;5.88;;;9.20;99.90;;;;;;5138869;27;20038;-77
2023/12/24 03:36:09;;;;;;;8.18;5.05;;;9.20;99.90;;;;;;5138659;27;20020;-77
2023/12/24 03:38:35;;;;;;;9.15;7.00;;;9.20;99.90;;;;;;5120071;27;20019;-76
2023/12/24 03:41:01;;;;;;;6.53;5.80;;;9.20;99.90;;;;;;5120219;27;20049;-77
2023/12/24 03:43:27;;;;;;;7.82;6.03;;;9.20;99.90;;;;;;5118852;27;20495;-77
2023/12/24 03:45:52;;;;;;;7.20;6.30;;;9.30;99.90;;;;;;5138776;27;20039;-77
2023/12/24 03:48:18;;;;;;;6.97;6.35;;;9.30;99.90;;;;;;5138451;27;20027;-77
2023/12/24 03:50:43;;;;;;;9.93;6.32;;;9.30;99.90;;;;;;5116496;28;20023;-77
2023/12/24 03:53:09;;;;;;;8.55;6.65;;;9.30;99.90;;;;;;5133876;27;20026;-77
2023/12/24 03:55:35;;;;;;;12.32;5.93;;;9.30;99.90;;;;;;5116452;28;20996;-77
2023/12/24 03:58:00;;;;;;;10.60;6.30;;;9.30;99.90;;;;;;5133693;27;20027;-77
2023/12/24 04:00:26;;;;;;;8.68;5.72;;;9.30;99.90;;;;;;5137981;27;20029;-77
2023/12/24 04:02:54;;;;;;;7.20;6.47;;;9.30;99.90;;;;;;5138298;27;20035;-77
2023/12/24 04:05:20;;;;;;;8.98;6.28;;;9.30;99.90;;;;;;5136908;27;20432;-76
2023/12/24 04:07:46;;;;;;;10.65;6.93;;;9.30;99.90;;;;;;5137564;27;20019;-77
2023/12/24 04:10:12;;;;;;;9.60;6.28;;;9.30;99.90;;;;;;5137979;27;20031;-77
2023/12/24 04:12:38;;;;;;;7.88;6.00;;;9.30;99.90;;;;;;5137849;27;20027;-77
2023/12/24 04:15:08;;;;;;;8.02;6.43;;;9.30;99.90;;;;;;5119520;27;20044;-77
2023/12/24 04:17:36;;;;;;;8.63;6.93;;;9.30;99.90;;;;;;5137922;27;20030;-77
2023/12/24 04:20:05;;;;;;;9.88;6.72;;;9.30;99.90;;;;;;5135636;27;20027;-77
2023/12/24 04:22:31;;;;;;;7.35;6.20;;;9.30;99.90;;;;;;5137467;27;20067;-77
2023/12/24 04:24:58;;;;;;;9.63;6.60;;;9.30;99.90;;;;;;5119425;27;20105;-77
2023/12/24 04:27:23;;;;;;;8.32;6.60;;;9.30;99.90;;;;;;5118472;27;20083;-77
2023/12/24 04:29:49;;;;;;;10.15;6.57;;;9.30;99.90;;;;;;5137811;27;20394;-77
2023/12/24 04:32:16;;;;;;;9.50;5.25;;;9.30;99.90;;;;;;5118874;27;20011;-76
2023/12/24 04:34:42;;;;;;;10.80;6.53;;;9.30;99.90;;;;;;5137732;27;20110;-77
2023/12/24 04:37:09;;;;;;;9.55;6.20;;;9.30;99.90;;;;;;5137194;27;20039;-77
2023/12/24 04:39:34;;;;;;;6.75;6.03;;;9.30;99.90;;;;;;5119244;27;20052;-76
2023/12/24 04:42:00;;;;;;;7.60;6.40;;;9.30;99.90;;;;;;5118839;27;20432;-77
2023/12/24 04:44:26;;;;;;;9.40;6.35;;;9.30;99.90;;;;;;5137558;27;20487;-77
2023/12/24 04:46:51;;;;;;;8.07;6.43;;;9.30;99.90;;;;;;5118802;27;20019;-77
2023/12/24 04:49:17;;;;;;;6.55;5.80;;;9.30;99.90;;;;;;5118824;27;20856;-76
2023/12/24 04:51:43;;;;;;;9.93;6.50;;;9.30;99.90;;;;;;5118371;27;20398;-77
2023/12/24 04:54:08;;;;;;;8.15;5.80;;;9.30;99.90;;;;;;5118671;27;20136;-77
2023/12/24 04:56:34;;;;;;;7.05;6.20;;;9.20;99.90;;;;;;5137035;27;20144;-77
2023/12/24 04:59:00;;;;;;;11.73;7.00;;;9.20;99.90;;;;;;5137451;27;20023;-77
2023/12/24 05:01:26;;;;;;;9.77;6.93;;;9.20;99.90;;;;;;5118418;27;20048;-77
2023/12/24 05:03:52;;;;;;;8.73;6.85;;;9.20;99.90;;;;;;5118696;27;20521;-77
2023/12/24 05:06:17;;;;;;;7.18;5.80;;;9.20;99.90;;;;;;5115587;27;20023;-77
2023/12/24 05:08:43;;;;;;;8.85;6.22;;;9.20;99.90;;;;;;5118668;27;20066;-78
2023/12/24 05:11:09;;;;;;;7.60;5.05;;;9.20;99.90;;;;;;5115115;28;20043;-78
2023/12/24 05:13:36;;;;;;;6.93;5.78;;;9.20;99.90;;;;;;5118411;27;20518;-78
2023/12/24 05:16:05;;;;;;;7.50;6.18;;;9.20;99.90;;;;;;5118102;27;20030;-78
2023/12/24 05:18:33;;;;;;;10.88;6.03;;;9.20;99.90;;;;;;5117977;27;20026;-78
2023/12/24 05:20:59;;;;;;;8.73;6.53;;;9.20;99.90;;;;;;5115375;27;20436;-78
2023/12/24 05:23:26;;;;;;;7.35;6.50;;;9.20;99.90;;;;;;5136731;27;20031;-77
2023/12/24 05:25:52;;;;;;;9.45;6.40;;;9.20;99.90;;;;;;5118204;27;20015;-78
2023/12/24 05:28:18;;;;;;;9.30;7.22;;;9.20;99.90;;;;;;5136921;27;20030;-78
2023/12/24 05:30:47;;;;;;;8.07;6.53;;;9.20;99.90;;;;;;5117929;27;20026;-78
2023/12/24 05:33:12;;;;;;;8.82;7.20;;;9.20;99.90;;;;;;5097695;28;20032;-78
2023/12/24 05:35:38;;;;;;;9.35;6.53;;;9.20;99.90;;;;;;5111524;27;20039;-77
2023/12/24 05:38:04;;;;;;;8.95;6.47;;;9.10;99.90;;;;;;5135544;27;20019;-77
2023/12/24 05:40:30;;;;;;;7.78;6.85;;;9.20;99.90;;;;;;5135652;27;20019;-77
2023/12/24 05:42:55;;;;;;;7.47;6.13;;;9.20;99.90;;;;;;5135303;27;20178;-78
2023/12/24 05:45:21;;;;;;;7.95;5.28;;;9.20;99.90;;;;;;5136111;28;20015;-78
2023/12/24 05:47:47;;;;;;;7.70;6.90;;;9.10;99.90;;;;;;5117785;28;20023;-78
2023/12/24 05:50:12;;;;;;;8.95;6.47;;;9.10;99.90;;;;;;5117733;28;20110;-78
2023/12/24 05:52:41;;;;;;;7.78;6.03;;;9.10;99.90;;;;;;5136404;28;20204;-77
2023/12/24 05:55:08;;;;;;;7.65;5.53;;;9.10;99.90;;;;;;5136114;28;20067;-78
2023/12/24 05:57:34;;;;;;;8.23;6.25;;;9.10;99.90;;;;;;5136504;28;20054;-78
2023/12/24 06:00:00;;;;;;;5.95;5.28;;;9.20;99.90;;;;;;5136048;28;20022;-78
2023/12/24 06:02:25;;;;;;;8.25;5.68;;;9.10;99.90;;;;;;5136506;28;20027;-78
2023/12/24 06:04:51;;;;;;;6.47;5.47;;;9.20;99.90;;;;;;5136505;28;20030;-78
2023/12/24 06:07:17;;;;;;;6.20;5.13;;;9.10;99.90;;;;;;5117765;28;20023;-78
2023/12/24 06:09:42;;;;;;;5.72;4.40;;;9.10;99.90;;;;;;5136181;28;20015;-78
2023/12/24 06:12:08;;;;;;;6.40;4.45;;;9.10;99.90;;;;;;5118003;28;20023;-78
2023/12/24 06:14:34;;;;;;;5.07;4.40;;;9.10;99.90;;;;;;5135966;28;20027;-77
2023/12/24 06:17:00;;;;;;;5.22;4.72;;;9.10;99.90;;;;;;5136310;28;20098;-77
2023/12/24 06:19:25;;;;;;;4.95;4.47;;;9.00;99.90;;;;;;5132418;28;20103;-76
2023/12/24 06:21:51;;;;;;;6.00;3.70;;;9.00;99.90;;;;;;5135865;28;20406;-75
2023/12/24 06:24:20;;;;;;;5.10;3.10;;;9.00;99.90;;;;;;5136029;28;20488;-75
2023/12/24 06:26:47;;;;;;;2.72;2.53;;;9.00;99.90;;;;;;5136325;28;20119;-75
2023/12/24 06:29:13;;;;;;;2.80;2.50;;;9.00;99.90;;;;;;5117567;28;20023;-75
2023/12/24 06:31:38;;;;;;;3.28;2.70;;;9.00;99.90;;;;;;5117629;28;20038;-76
2023/12/24 06:34:04;;;;;;;2.70;2.50;;;9.00;99.90;;;;;;5135881;28;20027;-76
2023/12/24 06:36:30;;;;;;;3.08;2.45;;;9.00;99.90;;;;;;5117552;28;20034;-76
2023/12/24 06:38:55;;;;;;;2.90;2.60;;;9.00;99.90;;;;;;5135927;28;20124;-76
2023/12/24 06:41:22;;;;;;;3.05;2.70;;;9.00;99.90;;;;;;5117607;28;20051;-76
2023/12/24 06:43:48;;;;;;;3.20;2.90;;;9.00;99.90;;;;;;5135887;28;20107;-76
2023/12/24 06:46:14;;;;;;;3.03;2.75;;;9.00;99.90;;;;;;5136046;28;20063;-76
2023/12/24 06:48:40;;;;;;;3.08;2.88;;;9.00;99.90;;;;;;5117208;27;20398;-77
2023/12/24 06:51:06;;;;;;;3.40;2.80;;;9.00;99.90;;;;;;5120350;27;20110;-76
2023/12/24 06:53:31;;;;;;;3.10;2.80;;;9.00;99.90;;;;;;5139179;27;20023;-77
2023/12/24 06:55:57;;;;;;;3.35;3.00;;;9.10;99.90;;;;;;5121287;27;20031;-77
2023/12/24 06:58:22;;;;;;;3.63;2.90;;;9.00;99.90;;;;;;5139635;27;20034;-76
2023/12/24 07:00:48;;;;;;;2.70;2.50;;;9.00;99.90;;;;;;5139665;27;20383;-77
2023/12/24 07:03:14;;;;;;;4.40;3.03;;;9.00;99.90;;;;;;5139411;27;20023;-76
2023/12/24 07:05:41;;;;;;;2.83;2.55;;;9.00;99.90;;;;;;5120860;27;20027;-76
2023/12/24 07:08:07;;;;;;;4.15;3.30;;;9.00;99.90;;;;;;5120642;27;20019;-77
2023/12/24 07:10:33;;;;;;;3.65;3.13;;;9.00;99.90;;;;;;5139564;27;20519;-76
2023/12/24 07:12:59;;;;;;;3.75;3.17;;;9.00;99.90;;;;;;5120691;27;20027;-77
2023/12/24 07:15:25;;;;;;;4.10;3.50;;;9.00;99.90;;;;;;5120826;27;20023;-76
2023/12/24 07:17:50;;;;;;;3.38;2.90;;;9.00;99.90;;;;;;5138974;27;20560;-76
2023/12/24 07:20:16;;;;;;;2.63;2.42;;;8.90;99.90;;;;;;5116319;27;20037;-77
2023/12/24 07:22:42;;;;;;;3.15;2.55;;;8.90;99.90;;;;;;5138874;27;20029;-77
2023/12/24 07:25:09;;;;;;;2.90;2.63;;;9.00;99.90;;;;;;5120663;27;20031;-77
2023/12/24 07:27:35;;;;;;;2.58;2.38;;;9.00;99.90;;;;;;5138880;27;20498;-76
2023/12/24 07:30:00;;;;;;;3.05;2.83;;;9.00;99.90;;;;;;5120552;27;20158;-79
2023/12/24 07:32:26;;;;;;;3.22;2.88;;;9.00;99.90;;;;;;5133696;27;20023;-82
2023/12/24 07:34:52;;;;;;;5.72;3.13;;;9.00;99.90;;;;;;5129963;27;20503;-81
2023/12/24 07:37:17;;;;;;;3.47;3.05;;;9.00;99.90;;;;;;5116467;27;20015;-82
2023/12/24 07:39:43;;;;;;;3.53;3.10;;;9.00;99.90;;;;;;5117286;27;20416;-82
2023/12/24 07:42:09;;;;;;;3.20;2.90;;;9.00;99.90;;;;;;5117602;27;20019;-82
2023/12/24 07:44:34;;;;;;;3.35;3.05;;;9.00;99.90;;;;;;5136552;27;20035;-82
2023/12/24 07:47:00;;;;;;;2.83;2.63;;;9.00;99.90;;;;;;5135764;27;20023;-80
2023/12/24 07:49:26;;;;;;;3.25;2.95;;;9.10;99.90;;;;;;5135340;27;20377;-81
2023/12/24 07:51:52;;;;;;;3.67;3.05;;;9.10;99.90;;;;;;5114684;27;20399;-81
2023/12/24 07:54:18;;;;;;;5.15;3.10;;;9.10;99.90;;;;;;5095481;28;20134;-82
2023/12/24 07:56:44;;;;;;;3.85;3.42;;;9.10;99.90;;;;;;5129250;27;20050;-82
2023/12/24 07:59:10;;;;;;;5.28;3.13;;;9.10;99.90;;;;;;5115504;27;20034;-82
2023/12/24 08:01:37;;;;;;;3.45;3.15;;;9.10;99.90;;;;;;5131324;27;20034;-80
2023/12/24 08:04:04;;;;;;;5.53;4.75;;;9.10;99.90;;;;;;5125572;27;20027;-81
2023/12/24 08:06:29;;;;;;;60.42;39.63;;;9.20;99.90;;;;;;5106398;27;20553;-80
2023/12/24 08:08:59;;;;;;;80.10;45.47;;;9.20;99.90;;;;;;5115513;27;20027;-81
2023/12/24 08:11:25;;;;;;;216.32;113.80;;;9.30;99.90;;;;;;5133835;27;20026;-81
2023/12/24 08:13:50;;;;;;;205.90;111.20;;;9.30;99.90;;;;;;5115561;27;20559;-81
2023/12/24 08:16:16;;;;;;;50.60;31.52;;;9.40;99.90;;;;;;5115588;27;20415;-81
2023/12/24 08:18:42;;;;;;;62.55;36.38;;;9.40;99.90;;;;;;5131577;27;20024;-81
2023/12/24 08:21:10;;;;;;;41.47;26.13;;;9.40;99.90;;;;;;5112294;27;20031;-82
2023/12/24 08:23:39;;;;;;;20.10;13.13;;;9.40;99.90;;;;;;5098523;27;20035;-82
2023/12/24 08:26:05;;;;;;;14.02;11.63;;;9.40;99.90;;;;;;5115210;27;20055;-81
2023/12/24 08:28:31;;;;;;;8.65;7.07;;;9.40;99.90;;;;;;5115183;27;20061;-81
2023/12/24 08:30:57;;;;;;;9.55;7.20;;;9.50;99.90;;;;;;5133679;27;20064;-81
2023/12/24 08:33:22;;;;;;;8.13;7.05;;;9.50;99.90;;;;;;5115141;27;20039;-80
2023/12/24 08:35:48;;;;;;;7.80;6.70;;;9.50;99.90;;;;;;5113675;27;20459;-81
2023/12/24 08:38:13;;;;;;;9.23;7.40;;;9.50;99.90;;;;;;5124401;27;20847;-82
2023/12/24 08:40:39;;;;;;;9.52;7.68;;;9.60;99.90;;;;;;5133654;27;20018;-82
2023/12/24 08:43:05;;;;;;;9.23;7.68;;;9.60;99.90;;;;;;5133511;27;20031;-81
2023/12/24 08:45:30;;;;;;;8.25;7.32;;;9.70;99.90;;;;;;5133220;27;20348;-82
2023/12/24 08:47:57;;;;;;;8.10;6.35;;;9.70;99.90;;;;;;5133095;27;20030;-81
2023/12/24 08:50:22;;;;;;;6.88;6.20;;;9.70;99.90;;;;;;5114308;27;20084;-82
2023/12/24 08:52:48;;;;;;;6.80;5.53;;;9.70;99.90;;;;;;5114501;27;20023;-81
2023/12/24 08:55:15;;;;;;;7.68;5.63;;;9.80;99.90;;;;;;5114262;27;20047;-81
2023/12/24 08:57:41;;;;;;;5.05;4.15;;;9.90;99.90;;;;;;5132753;27;20019;-82
2023/12/24 09:00:11;;;;;;;10.07;5.03;;;9.80;99.90;;;;;;5114488;27;20019;-83
2023/12/24 09:02:38;;;;;;;5.13;4.35;;;9.90;99.90;;;;;;5114242;27;20023;-84
2023/12/24 09:05:07;;;;;;;4.72;3.92;;;10.00;99.90;;;;;;5132175;27;20065;-83
2023/12/24 09:07:34;;;;;;;5.53;4.30;;;10.00;99.90;;;;;;5110756;28;20032;-82
2023/12/24 09:09:59;;;;;;;5.15;4.30;;;10.10;99.90;;;;;;5126154;27;20470;-81
2023/12/24 09:12:25;;;;;;;6.00;3.60;;;10.20;99.90;;;;;;5125933;27;20364;-82
2023/12/24 09:14:51;;;;;;;4.47;3.92;;;10.20;99.90;;;;;;5132878;27;20030;-83
2023/12/24 09:17:16;;;;;;;3.90;3.50;;;10.20;99.90;;;;;;5115454;27;20037;-82
2023/12/24 09:19:42;;;;;;;4.93;3.45;;;10.30;99.90;;;;;;5132310;27;20479;-83
2023/12/24 09:22:08;;;;;;;209.80;110.00;;;10.30;99.90;;;;;;5115826;27;20038;-82
2023/12/24 09:24:34;;;;;;;8.43;5.40;;;10.50;99.90;;;;;;5111881;28;20146;-82
2023/12/24 09:27:00;;;;;;;4.18;3.30;;;10.50;99.90;;;;;;5127136;27;20554;-83
2023/12/24 09:29:26;;;;;;;4.07;3.33;;;10.50;99.90;;;;;;5132743;27;20023;-85
2023/12/24 09:31:52;;;;;;;5.03;3.58;;;10.70;99.90;;;;;;5132714;27;20027;-83
2023/12/24 09:34:18;;;;;;;40.22;23.90;;;10.60;99.90;;;;;;5113735;27;20019;-85
2023/12/24 09:36:44;;;;;;;10.85;7.38;;;10.60;99.90;;;;;;5113579;27;20031;-82
2023/12/24 09:39:11;;;;;;;3.17;2.67;;;10.70;99.90;;;;;;5110129;28;20019;-83
2023/12/24 09:41:37;;;;;;;3.45;3.15;;;10.70;99.90;;;;;;5103634;28;20039;-86
2023/12/24 09:44:04;;;;;;;4.43;3.60;;;10.60;99.90;;;;;;5108109;28;20030;-83
2023/12/24 09:46:29;;;;;;;3.45;2.50;;;10.70;99.90;;;;;;5107164;28;20031;-83
2023/12/24 09:48:55;;;;;;;2.85;2.50;;;10.70;99.90;;;;;;5131987;27;20023;-83
2023/12/24 09:51:25;;;;;;;3.30;2.30;;;10.70;99.90;;;;;;5112976;28;20083;-83
2023/12/24 09:53:52;;;;;;;2.88;2.42;;;10.70;99.90;;;;;;5110821;28;20040;-82
2023/12/24 09:56:18;;;;;;;2.85;2.15;;;10.70;99.90;;;;;;5113044;28;20038;-82
2023/12/24 09:58:45;;;;;;;3.53;2.50;;;10.70;99.90;;;;;;5111019;28;20028;-82
2023/12/24 10:01:11;;;;;;;2.75;2.13;;;10.60;99.90;;;;;;5110090;28;20083;-83
2023/12/24 10:03:37;;;;;;;4.47;2.40;;;10.60;99.90;;;;;;5130510;28;20133;-83
2023/12/24 10:06:04;;;;;;;2.50;2.30;;;10.60;99.90;;;;;;5131920;28;20501;-83
2023/12/24 10:08:32;;;;;;;2.60;2.30;;;10.60;99.90;;;;;;5110990;28;20030;-83
2023/12/24 10:11:15;;;;;;;3.20;2.60;;;10.60;99.90;;;;;;5113423;28;20100;-82
2023/12/24 10:13:41;;;;;;;2.92;2.13;;;10.50;99.90;;;;;;5132326;28;20092;-81
2023/12/24 10:16:09;;;;;;;2.78;2.20;;;10.50;99.90;;;;;;5109135;28;20506;-81
2023/12/24 10:18:36;;;;;;;2.90;2.22;;;10.50;99.90;;;;;;5111889;28;20026;-80
2023/12/24 10:21:09;;;;;;;2.60;2.30;;;10.60;99.90;;;;;;5126524;28;20736;-81
2023/12/24 10:23:36;;;;;;;2.42;2.00;;;10.60;99.90;;;;;;5113127;27;20072;-82
2023/12/24 10:26:03;;;;;;;2.42;2.08;;;10.70;99.90;;;;;;5134799;27;20715;-82
2023/12/24 10:28:29;;;;;;;2.75;2.35;;;10.60;99.90;;;;;;5135970;27;20057;-82
2023/12/24 10:31:10;;;;;;;2.40;2.10;;;10.70;99.90;;;;;;5136082;27;20027;-78
2023/12/24 10:33:37;;;;;;;2.58;1.90;;;10.80;99.90;;;;;;5139944;27;20558;-77
2023/12/24 10:36:04;;;;;;;2.05;1.83;;;10.80;99.90;;;;;;5115762;28;20024;-79
2023/12/24 10:38:30;;;;;;;2.30;2.10;;;10.80;99.90;;;;;;5132597;27;20845;-77
2023/12/24 10:40:56;;;;;;;2.42;2.00;;;10.90;99.90;;;;;;5139794;27;20479;-78
2023/12/24 10:43:22;;;;;;;2.47;1.95;;;10.80;99.90;;;;;;5139972;27;20023;-78
2023/12/24 10:45:47;;;;;;;2.00;1.90;;;10.90;99.90;;;;;;5121293;27;20060;-78
2023/12/24 10:48:13;;;;;;;2.10;1.90;;;10.90;99.90;;;;;;5139886;27;20031;-78
2023/12/24 10:50:39;;;;;;;2.55;2.35;;;11.00;99.90;;;;;;5121107;27;20031;-78
2023/12/24 10:53:04;;;;;;;3.13;1.88;;;11.10;99.90;;;;;;5139580;27;20027;-78
2023/12/24 10:55:33;;;;;;;1.98;1.80;;;11.20;99.90;;;;;;5121303;27;20096;-78
2023/12/24 10:58:05;;;;;;;6.15;2.08;;;11.20;99.90;;;;;;5139494;27;20110;-79
2023/12/24 11:00:31;;;;;;;1.80;1.70;;;11.20;99.90;;;;;;5136411;27;20055;-79
2023/12/24 11:02:57;;;;;;;2.95;1.60;;;11.10;99.90;;;;;;5136797;27;20030;-79
2023/12/24 11:05:44;;;;;;;2.20;2.00;;;10.90;99.90;;;;;;5136600;27;20039;-79
2023/12/24 11:08:19;;;;;;;1.80;1.70;;;10.80;99.90;;;;;;5122837;27;20517;-78
2023/12/24 11:10:51;;;;;;;2.00;1.80;;;10.70;99.90;;;;;;5111121;27;20035;-79
2023/12/24 11:13:32;;;;;;;2.20;2.00;;;10.70;99.90;;;;;;5123936;27;20058;-79
2023/12/24 11:16:06;;;;;;;3.25;2.40;;;10.70;99.90;;;;;;5129056;27;20088;-78
2023/12/24 11:18:48;;;;;;;2.13;1.90;;;10.70;99.90;;;;;;5119877;27;20034;-78
2023/12/24 11:21:19;;;;;;;2.67;2.28;;;10.80;99.90;;;;;;5116443;27;20038;-79
2023/12/24 11:24:14;;;;;;;3.50;1.80;;;10.80;99.90;;;;;;5110985;27;20035;-78
2023/12/24 11:26:51;;;;;;;2.35;2.10;;;10.80;99.90;;;;;;5131668;27;20110;-78
2023/12/24 11:29:47;;;;;;;2.60;2.40;;;10.80;99.90;;;;;;5114843;27;20071;-79
2023/12/24 11:32:25;;;;;;;4.35;2.63;;;10.80;99.90;;;;;;5115680;27;20027;-79
2023/12/24 11:34:52;;;;;;;2.30;2.00;;;10.90;99.90;;;;;;5134181;27;20026;-78
2023/12/24 11:37:27;;;;;;;2.47;1.98;;;11.10;99.90;;;;;;5115264;27;20058;-80
2023/12/24 11:40:15;;;;;;;11.98;8.02;;;11.10;99.90;;;;;;5111273;27;20030;-79
2023/12/24 11:42:51;;;;;;;3.42;2.20;;;11.20;99.90;;;;;;5115519;27;20124;-78
2023/12/24 11:45:26;;;;;;;2.30;2.05;;;11.30;99.90;;;;;;5133610;27;20098;-79
2023/12/24 11:47:52;;;;;;;2.20;1.85;;;11.30;99.90;;;;;;5112289;27;20033;-79
2023/12/24 11:50:19;;;;;;;2.83;2.55;;;11.30;99.90;;;;;;5133903;27;20378;-80
2023/12/24 11:52:46;;;;;;;2.28;2.00;;;11.30;99.90;;;;;;5132767;27;20035;-79
2023/12/24 11:55:19;;;;;;;2.88;2.10;;;11.20;99.90;;;;;;5113970;27;20044;-78
2023/12/24 11:57:46;;;;;;;2.80;2.10;;;11.20;99.90;;;;;;5115248;27;20068;-79
2023/12/24 12:00:16;;;;;;;2.55;2.03;;;11.20;99.90;;;;;;5111443;28;20051;-79
2023/12/24 12:02:42;;;;;;;2.97;2.20;;;11.10;99.90;;;;;;5128498;27;20020;-79
2023/12/24 12:05:09;;;;;;;2.60;2.38;;;11.10;99.90;;;;;;5111614;28;20058;-79
2023/12/24 12:07:35;;;;;;;2.65;2.17;;;11.10;99.90;;;;;;5128544;27;20023;-78
2023/12/24 12:10:02;;;;;;;2.83;2.13;;;11.00;99.90;;;;;;5133767;27;20015;-79
2023/12/24 12:12:28;;;;;;;6.93;2.72;;;11.10;99.90;;;;;;5122827;27;20038;-79
2023/12/24 12:14:54;;;;;;;5.32;2.60;;;11.20;99.90;;;;;;5123991;27;20027;-78
2023/12/24 12:17:19;;;;;;;3.03;2.58;;;11.20;99.90;;;;;;5133101;27;20027;-78
2023/12/24 12:19:45;;;;;;;4.40;4.00;;;11.20;99.90;;;;;;5130023;27;20031;-79
2023/12/24 12:22:11;;;;;;;2.53;2.33;;;11.20;99.90;;;;;;5107187;28;20020;-80
2023/12/24 12:24:37;;;;;;;4.18;2.85;;;11.30;99.90;;;;;;5118117;27;20039;-79
2023/12/24 12:27:03;;;;;;;3.53;2.50;;;11.20;99.90;;;;;;5115281;27;21095;-79
2023/12/24 12:29:31;;;;;;;2.97;2.40;;;11.20;99.90;;;;;;5109786;28;20038;-80
2023/12/24 12:31:58;;;;;;;2.22;1.90;;;11.20;99.90;;;;;;5108188;28;20038;-78
2023/12/24 12:34:24;;;;;;;2.40;2.20;;;11.10;99.90;;;;;;5117971;27;20019;-79
2023/12/24 12:36:50;;;;;;;2.28;1.90;;;11.10;99.90;;;;;;5113999;27;20031;-79
2023/12/24 12:39:16;;;;;;;2.20;2.00;;;11.10;99.90;;;;;;5115110;27;20130;-79
2023/12/24 12:41:42;;;;;;;2.53;2.33;;;11.10;99.90;;;;;;5114412;27;20548;-80
2023/12/24 12:44:08;;;;;;;4.88;2.17;;;11.10;99.90;;;;;;5116386;27;20031;-80
2023/12/24 12:46:33;;;;;;;2.30;2.10;;;11.20;99.90;;;;;;5109588;27;20449;-79
2023/12/24 12:48:59;;;;;;;2.88;2.25;;;11.30;99.90;;;;;;5115159;27;20031;-79
2023/12/24 12:51:25;;;;;;;2.70;2.15;;;11.30;99.90;;;;;;5118183;27;20647;-80